sensor_id;sensor_type;location;lat;lon;timestamp;temperature;humidity
9215;DHT22;4642;51.364;6.788;2022-12-01T00:00:52;6.40;99.90
9215;DHT22;4642;51.364;6.788;2022-12-01T00:03:18;6.40;99.90
9215;DHT22;4642;51.364;6.788;2022-12-01T00:05:43;6.40;99.90
9215;DHT22;4642;51.364;6.788;2022-12-01T00:08:09;6.40;99.90
9215;DHT22;4642;51.364;6.788;2022-12-01T00:10:35;6.40;99.90
9215;DHT22;4642;51.364;6.788;2022-12-01T00:13:02;6.40;99.90
9215;DHT22;4642;51.364;6.788;2022-12-01T00:15:33;6.40;99.90
9215;DHT22;4642;51.364;6.788;2022-12-01T00:18:00;6.40;99.90
9215;DHT22;4642;51.364;6.788;2022-12-01T00:20:26;6.40;99.90
9215;DHT22;4642;51.364;6.788;2022-12-01T00:22:52;6.30;99.90
9215;DHT22;4642;51.364;6.788;2022-12-01T00:25:18;6.40;99.90
9215;DHT22;4642;51.364;6.788;2022-12-01T00:27:49;6.30;99.90
9215;DHT22;4642;51.364;6.788;2022-12-01T00:30:16;6.40;99.90
9215;DHT22;4642;51.364;6.788;2022-12-01T00:32:43;6.40;99.90
9215;DHT22;4642;51.364;6.788;2022-12-01T00:35:09;6.40;99.90
9215;DHT22;4642;51.364;6.788;2022-12-01T00:37:34;6.40;99.90
9215;DHT22;4642;51.364;6.788;2022-12-01T00:40:00;6.40;99.90
9215;DHT22;4642;51.364;6.788;2022-12-01T00:42:26;6.30;99.90
9215;DHT22;4642;51.364;6.788;2022-12-01T00:44:52;6.30;99.90
9215;DHT22;4642;51.364;6.788;2022-12-01T00:47:18;6.30;99.90
9215;DHT22;4642;51.364;6.788;2022-12-01T00:49:44;6.30;99.90
9215;DHT22;4642;51.364;6.788;2022-12-01T00:52:11;6.30;99.90
9215;DHT22;4642;51.364;6.788;2022-12-01T00:54:37;6.30;99.90
9215;DHT22;4642;51.364;6.788;2022-12-01T00:57:02;6.40;99.90
9215;DHT22;4642;51.364;6.788;2022-12-01T00:59:28;6.30;99.90
9215;DHT22;4642;51.364;6.788;2022-12-01T01:01:53;6.30;99.90
9215;DHT22;4642;51.364;6.788;2022-12-01T01:04:19;6.30;99.90
9215;DHT22;4642;51.364;6.788;2022-12-01T01:06:45;6.30;99.90
9215;DHT22;4642;51.364;6.788;2022-12-01T01:09:12;6.30;99.90
9215;DHT22;4642;51.364;6.788;2022-12-01T01:11:38;6.30;99.90
9215;DHT22;4642;51.364;6.788;2022-12-01T01:14:04;6.40;99.90
9215;DHT22;4642;51.364;6.788;2022-12-01T01:16:30;6.40;99.90
9215;DHT22;4642;51.364;6.788;2022-12-01T01:18:56;6.30;99.90
9215;DHT22;4642;51.364;6.788;2022-12-01T01:21:23;6.40;99.90
9215;DHT22;4642;51.364;6.788;2022-12-01T01:23:50;6.40;99.90
9215;DHT22;4642;51.364;6.788;2022-12-01T01:26:19;6.40;99.90
9215;DHT22;4642;51.364;6.788;2022-12-01T01:28:46;6.40;99.90
9215;DHT22;4642;51.364;6.788;2022-12-01T01:31:15;6.40;99.90
9215;DHT22;4642;51.364;6.788;2022-12-01T01:33:41;6.40;99.90
9215;DHT22;4642;51.364;6.788;2022-12-01T01:36:07;6.40;99.90
9215;DHT22;4642;51.364;6.788;2022-12-01T01:38:33;6.40;99.90
9215;DHT22;4642;51.364;6.788;2022-12-01T01:40:59;6.40;99.90
9215;DHT22;4642;51.364;6.788;2022-12-01T01:46:36;6.40;99.90
9215;DHT22;4642;51.364;6.788;2022-12-01T01:49:05;6.30;99.90
9215;DHT22;4642;51.364;6.788;2022-12-01T01:51:48;6.30;99.90
9215;DHT22;4642;51.364;6.788;2022-12-01T01:54:25;6.30;99.90
9215;DHT22;4642;51.364;6.788;2022-12-01T01:56:51;6.40;99.90
9215;DHT22;4642;51.364;6.788;2022-12-01T01:59:21;6.30;99.90
9215;DHT22;4642;51.364;6.788;2022-12-01T02:01:51;6.40;99.90
9215;DHT22;4642;51.364;6.788;2022-12-01T02:04:22;6.30;99.90
9215;DHT22;4642;51.364;6.788;2022-12-01T02:06:48;6.40;99.90
9215;DHT22;4642;51.364;6.788;2022-12-01T02:09:14;6.40;99.90
9215;DHT22;4642;51.364;6.788;2022-12-01T02:12:05;6.30;99.90
9215;DHT22;4642;51.364;6.788;2022-12-01T02:17:21;6.40;99.90
9215;DHT22;4642;51.364;6.788;2022-12-01T02:31:40;6.30;99.90
9215;DHT22;4642;51.364;6.788;2022-12-01T02:34:28;6.30;99.90
9215;DHT22;4642;51.364;6.788;2022-12-01T02:37:07;6.30;99.90
9215;DHT22;4642;51.364;6.788;2022-12-01T02:39:37;6.30;99.90
9215;DHT22;4642;51.364;6.788;2022-12-01T02:42:17;6.30;99.90
9215;DHT22;4642;51.364;6.788;2022-12-01T02:45:08;6.30;99.90
9215;DHT22;4642;51.364;6.788;2022-12-01T02:47:36;6.30;99.90
9215;DHT22;4642;51.364;6.788;2022-12-01T02:50:04;6.30;99.90
9215;DHT22;4642;51.364;6.788;2022-12-01T02:52:30;6.30;99.90
9215;DHT22;4642;51.364;6.788;2022-12-01T02:54:56;6.30;99.90
9215;DHT22;4642;51.364;6.788;2022-12-01T02:57:22;6.40;99.90
9215;DHT22;4642;51.364;6.788;2022-12-01T02:59:51;6.40;99.90
9215;DHT22;4642;51.364;6.788;2022-12-01T03:02:34;6.30;99.90
9215;DHT22;4642;51.364;6.788;2022-12-01T03:05:20;6.40;99.90
9215;DHT22;4642;51.364;6.788;2022-12-01T03:07:59;6.40;99.90
9215;DHT22;4642;51.364;6.788;2022-12-01T03:10:46;6.40;99.90
9215;DHT22;4642;51.364;6.788;2022-12-01T03:13:51;6.40;99.90
9215;DHT22;4642;51.364;6.788;2022-12-01T03:16:26;6.40;99.90
9215;DHT22;4642;51.364;6.788;2022-12-01T03:18:59;6.40;99.90
9215;DHT22;4642;51.364;6.788;2022-12-01T03:21:34;6.40;99.90
9215;DHT22;4642;51.364;6.788;2022-12-01T03:24:12;6.40;99.90
9215;DHT22;4642;51.364;6.788;2022-12-01T03:26:40;6.40;99.90
9215;DHT22;4642;51.364;6.788;2022-12-01T03:29:41;6.40;99.90
9215;DHT22;4642;51.364;6.788;2022-12-01T03:32:11;6.30;99.90
9215;DHT22;4642;51.364;6.788;2022-12-01T03:34:55;6.30;99.90
9215;DHT22;4642;51.364;6.788;2022-12-01T03:37:28;6.30;99.90
9215;DHT22;4642;51.364;6.788;2022-12-01T03:39:56;6.30;99.90
9215;DHT22;4642;51.364;6.788;2022-12-01T03:42:26;6.30;99.90
9215;DHT22;4642;51.364;6.788;2022-12-01T03:44:55;6.30;99.90
9215;DHT22;4642;51.364;6.788;2022-12-01T03:47:28;6.30;99.90
9215;DHT22;4642;51.364;6.788;2022-12-01T03:49:56;6.30;99.90
9215;DHT22;4642;51.364;6.788;2022-12-01T03:55:24;6.30;99.90
9215;DHT22;4642;51.364;6.788;2022-12-01T03:58:08;6.30;99.90
9215;DHT22;4642;51.364;6.788;2022-12-01T04:00:35;6.30;99.90
9215;DHT22;4642;51.364;6.788;2022-12-01T04:03:02;6.40;99.90
9215;DHT22;4642;51.364;6.788;2022-12-01T04:05:29;6.40;99.90
9215;DHT22;4642;51.364;6.788;2022-12-01T04:07:55;6.40;99.90
9215;DHT22;4642;51.364;6.788;2022-12-01T04:10:21;6.40;99.90
9215;DHT22;4642;51.364;6.788;2022-12-01T04:12:46;6.30;99.90
9215;DHT22;4642;51.364;6.788;2022-12-01T04:15:13;6.40;99.90
9215;DHT22;4642;51.364;6.788;2022-12-01T04:17:39;6.30;99.90
9215;DHT22;4642;51.364;6.788;2022-12-01T04:20:08;6.30;99.90
9215;DHT22;4642;51.364;6.788;2022-12-01T04:22:35;6.30;99.90
9215;DHT22;4642;51.364;6.788;2022-12-01T04:25:01;6.30;99.90
9215;DHT22;4642;51.364;6.788;2022-12-01T04:27:27;6.30;99.90
9215;DHT22;4642;51.364;6.788;2022-12-01T04:29:53;6.30;99.90
9215;DHT22;4642;51.364;6.788;2022-12-01T04:32:18;6.30;99.90
9215;DHT22;4642;51.364;6.788;2022-12-01T04:34:44;6.30;99.90
9215;DHT22;4642;51.364;6.788;2022-12-01T04:37:09;6.30;99.90
9215;DHT22;4642;51.364;6.788;2022-12-01T04:39:36;6.30;99.90
9215;DHT22;4642;51.364;6.788;2022-12-01T04:42:03;6.30;99.90
9215;DHT22;4642;51.364;6.788;2022-12-01T04:44:29;6.30;99.90
9215;DHT22;4642;51.364;6.788;2022-12-01T04:46:55;6.30;99.90
9215;DHT22;4642;51.364;6.788;2022-12-01T04:49:21;6.30;99.90
9215;DHT22;4642;51.364;6.788;2022-12-01T04:51:47;6.30;99.90
9215;DHT22;4642;51.364;6.788;2022-12-01T04:54:13;6.30;99.90
9215;DHT22;4642;51.364;6.788;2022-12-01T04:56:38;6.30;99.90
9215;DHT22;4642;51.364;6.788;2022-12-01T04:59:04;6.30;99.90
9215;DHT22;4642;51.364;6.788;2022-12-01T05:01:30;6.30;99.90
9215;DHT22;4642;51.364;6.788;2022-12-01T05:03:55;6.30;99.90
9215;DHT22;4642;51.364;6.788;2022-12-01T05:06:23;6.30;99.90
9215;DHT22;4642;51.364;6.788;2022-12-01T05:08:50;6.30;99.90
9215;DHT22;4642;51.364;6.788;2022-12-01T05:11:17;6.30;99.90
9215;DHT22;4642;51.364;6.788;2022-12-01T05:13:44;6.30;99.90
9215;DHT22;4642;51.364;6.788;2022-12-01T05:16:16;6.30;99.90
9215;DHT22;4642;51.364;6.788;2022-12-01T05:18:42;6.20;99.90
9215;DHT22;4642;51.364;6.788;2022-12-01T05:21:09;6.30;99.90
9215;DHT22;4642;51.364;6.788;2022-12-01T05:23:36;6.30;99.90
9215;DHT22;4642;51.364;6.788;2022-12-01T05:26:04;6.30;99.90
9215;DHT22;4642;51.364;6.788;2022-12-01T05:28:30;6.20;99.90
9215;DHT22;4642;51.364;6.788;2022-12-01T05:30:56;6.20;99.90
9215;DHT22;4642;51.364;6.788;2022-12-01T05:33:23;6.20;99.90
9215;DHT22;4642;51.364;6.788;2022-12-01T05:35:49;6.30;99.90
9215;DHT22;4642;51.364;6.788;2022-12-01T05:38:15;6.20;99.90
9215;DHT22;4642;51.364;6.788;2022-12-01T05:40:41;6.20;99.90
9215;DHT22;4642;51.364;6.788;2022-12-01T05:43:07;6.10;99.90
9215;DHT22;4642;51.364;6.788;2022-12-01T05:45:33;6.20;99.90
9215;DHT22;4642;51.364;6.788;2022-12-01T05:48:00;6.20;99.90
9215;DHT22;4642;51.364;6.788;2022-12-01T05:50:27;6.20;99.90
9215;DHT22;4642;51.364;6.788;2022-12-01T05:52:53;6.20;99.90
9215;DHT22;4642;51.364;6.788;2022-12-01T05:55:19;6.20;99.90
9215;DHT22;4642;51.364;6.788;2022-12-01T05:57:45;6.20;99.90
9215;DHT22;4642;51.364;6.788;2022-12-01T06:00:11;6.20;99.90
9215;DHT22;4642;51.364;6.788;2022-12-01T06:02:41;6.20;99.90
9215;DHT22;4642;51.364;6.788;2022-12-01T06:05:07;6.20;99.90
9215;DHT22;4642;51.364;6.788;2022-12-01T06:07:33;6.20;99.90
9215;DHT22;4642;51.364;6.788;2022-12-01T06:10:00;6.20;99.90
9215;DHT22;4642;51.364;6.788;2022-12-01T06:12:26;6.20;99.90
9215;DHT22;4642;51.364;6.788;2022-12-01T06:14:51;6.20;99.90
9215;DHT22;4642;51.364;6.788;2022-12-01T06:17:17;6.20;99.90
9215;DHT22;4642;51.364;6.788;2022-12-01T06:19:42;6.20;99.90
9215;DHT22;4642;51.364;6.788;2022-12-01T06:22:08;6.20;99.90
9215;DHT22;4642;51.364;6.788;2022-12-01T06:24:34;6.20;99.90
9215;DHT22;4642;51.364;6.788;2022-12-01T06:27:00;6.20;99.90
9215;DHT22;4642;51.364;6.788;2022-12-01T06:29:25;6.20;99.90
9215;DHT22;4642;51.364;6.788;2022-12-01T06:31:51;6.20;99.90
9215;DHT22;4642;51.364;6.788;2022-12-01T06:34:16;6.20;99.90
9215;DHT22;4642;51.364;6.788;2022-12-01T06:36:42;6.10;99.90
9215;DHT22;4642;51.364;6.788;2022-12-01T06:39:08;6.20;99.90
9215;DHT22;4642;51.364;6.788;2022-12-01T06:41:37;6.20;99.90
9215;DHT22;4642;51.364;6.788;2022-12-01T06:44:03;6.20;99.90
9215;DHT22;4642;51.364;6.788;2022-12-01T06:46:28;6.10;99.90
9215;DHT22;4642;51.364;6.788;2022-12-01T06:48:54;6.20;99.90
9215;DHT22;4642;51.364;6.788;2022-12-01T06:51:20;6.10;99.90
9215;DHT22;4642;51.364;6.788;2022-12-01T06:53:45;6.10;99.90
9215;DHT22;4642;51.364;6.788;2022-12-01T06:56:11;6.10;99.90
9215;DHT22;4642;51.364;6.788;2022-12-01T06:58:37;6.20;99.90
9215;DHT22;4642;51.364;6.788;2022-12-01T07:01:10;6.10;99.90
9215;DHT22;4642;51.364;6.788;2022-12-01T07:03:36;6.10;99.90
9215;DHT22;4642;51.364;6.788;2022-12-01T07:06:03;6.10;99.90
9215;DHT22;4642;51.364;6.788;2022-12-01T07:08:30;6.10;99.90
9215;DHT22;4642;51.364;6.788;2022-12-01T07:11:00;6.20;99.90
9215;DHT22;4642;51.364;6.788;2022-12-01T07:13:27;6.20;99.90
9215;DHT22;4642;51.364;6.788;2022-12-01T07:15:52;6.10;99.90
9215;DHT22;4642;51.364;6.788;2022-12-01T07:18:18;6.10;99.90
9215;DHT22;4642;51.364;6.788;2022-12-01T07:20:44;6.10;99.90
9215;DHT22;4642;51.364;6.788;2022-12-01T07:23:09;6.20;99.90
9215;DHT22;4642;51.364;6.788;2022-12-01T07:25:35;6.20;99.90
9215;DHT22;4642;51.364;6.788;2022-12-01T07:28:00;6.20;99.90
9215;DHT22;4642;51.364;6.788;2022-12-01T07:30:26;6.20;99.90
9215;DHT22;4642;51.364;6.788;2022-12-01T07:32:51;6.30;99.90
9215;DHT22;4642;51.364;6.788;2022-12-01T07:35:17;6.30;99.90
9215;DHT22;4642;51.364;6.788;2022-12-01T07:37:42;6.20;99.90
9215;DHT22;4642;51.364;6.788;2022-12-01T07:40:08;6.20;99.90
9215;DHT22;4642;51.364;6.788;2022-12-01T07:42:35;6.20;99.90
9215;DHT22;4642;51.364;6.788;2022-12-01T07:45:00;6.20;99.90
9215;DHT22;4642;51.364;6.788;2022-12-01T07:47:26;6.20;99.90
9215;DHT22;4642;51.364;6.788;2022-12-01T07:49:51;6.20;99.90
9215;DHT22;4642;51.364;6.788;2022-12-01T07:52:17;6.20;99.90
9215;DHT22;4642;51.364;6.788;2022-12-01T07:54:42;6.20;99.90
9215;DHT22;4642;51.364;6.788;2022-12-01T07:57:08;6.20;99.90
9215;DHT22;4642;51.364;6.788;2022-12-01T07:59:34;6.20;99.90
9215;DHT22;4642;51.364;6.788;2022-12-01T08:01:59;6.20;99.90
9215;DHT22;4642;51.364;6.788;2022-12-01T08:04:25;6.20;99.90
9215;DHT22;4642;51.364;6.788;2022-12-01T08:06:50;6.20;99.90
9215;DHT22;4642;51.364;6.788;2022-12-01T08:09:15;6.20;99.90
9215;DHT22;4642;51.364;6.788;2022-12-01T08:11:41;6.20;99.90
9215;DHT22;4642;51.364;6.788;2022-12-01T08:14:07;6.20;99.90
9215;DHT22;4642;51.364;6.788;2022-12-01T08:16:32;6.20;99.90
9215;DHT22;4642;51.364;6.788;2022-12-01T08:18:58;6.30;99.90
9215;DHT22;4642;51.364;6.788;2022-12-01T08:21:23;6.30;99.90
9215;DHT22;4642;51.364;6.788;2022-12-01T08:23:54;6.30;99.90
9215;DHT22;4642;51.364;6.788;2022-12-01T08:26:20;6.30;99.90
9215;DHT22;4642;51.364;6.788;2022-12-01T08:28:46;6.30;99.90
9215;DHT22;4642;51.364;6.788;2022-12-01T08:31:15;6.30;99.90
9215;DHT22;4642;51.364;6.788;2022-12-01T08:33:41;6.30;99.90
9215;DHT22;4642;51.364;6.788;2022-12-01T08:36:07;6.40;99.90
9215;DHT22;4642;51.364;6.788;2022-12-01T08:38:33;6.40;99.90
9215;DHT22;4642;51.364;6.788;2022-12-01T08:41:04;6.30;99.90
9215;DHT22;4642;51.364;6.788;2022-12-01T08:43:30;6.40;99.90
9215;DHT22;4642;51.364;6.788;2022-12-01T08:46:00;6.30;99.90
9215;DHT22;4642;51.364;6.788;2022-12-01T08:48:26;6.30;99.90
9215;DHT22;4642;51.364;6.788;2022-12-01T08:51:03;6.40;99.90
9215;DHT22;4642;51.364;6.788;2022-12-01T08:53:29;6.30;99.90
9215;DHT22;4642;51.364;6.788;2022-12-01T08:55:59;6.40;99.90
9215;DHT22;4642;51.364;6.788;2022-12-01T08:58:25;6.40;99.90
9215;DHT22;4642;51.364;6.788;2022-12-01T09:00:50;6.40;99.90
9215;DHT22;4642;51.364;6.788;2022-12-01T09:03:16;6.40;99.90
9215;DHT22;4642;51.364;6.788;2022-12-01T09:05:41;6.40;99.90
9215;DHT22;4642;51.364;6.788;2022-12-01T09:08:07;6.40;99.90
9215;DHT22;4642;51.364;6.788;2022-12-01T09:10:51;6.40;99.90
9215;DHT22;4642;51.364;6.788;2022-12-01T09:13:17;6.40;99.90
9215;DHT22;4642;51.364;6.788;2022-12-01T09:15:43;6.40;99.90
9215;DHT22;4642;51.364;6.788;2022-12-01T09:18:08;6.40;99.90
9215;DHT22;4642;51.364;6.788;2022-12-01T09:20:34;6.40;99.90
9215;DHT22;4642;51.364;6.788;2022-12-01T09:22:59;6.40;99.90
9215;DHT22;4642;51.364;6.788;2022-12-01T09:25:25;6.40;99.90
9215;DHT22;4642;51.364;6.788;2022-12-01T09:27:50;6.50;99.90
9215;DHT22;4642;51.364;6.788;2022-12-01T09:30:16;6.50;99.90
9215;DHT22;4642;51.364;6.788;2022-12-01T09:32:42;6.40;99.90
9215;DHT22;4642;51.364;6.788;2022-12-01T09:35:07;6.50;99.90
9215;DHT22;4642;51.364;6.788;2022-12-01T09:37:33;6.40;99.90
9215;DHT22;4642;51.364;6.788;2022-12-01T09:39:58;6.40;99.90
9215;DHT22;4642;51.364;6.788;2022-12-01T09:42:24;6.50;99.90
9215;DHT22;4642;51.364;6.788;2022-12-01T09:44:53;6.50;99.90
9215;DHT22;4642;51.364;6.788;2022-12-01T09:47:24;6.50;99.90
9215;DHT22;4642;51.364;6.788;2022-12-01T09:50:11;6.50;99.90
9215;DHT22;4642;51.364;6.788;2022-12-01T09:52:49;6.50;99.90
9215;DHT22;4642;51.364;6.788;2022-12-01T09:55:17;6.50;99.90
9215;DHT22;4642;51.364;6.788;2022-12-01T09:57:46;6.50;99.90
9215;DHT22;4642;51.364;6.788;2022-12-01T10:02:42;6.50;99.90
9215;DHT22;4642;51.364;6.788;2022-12-01T10:05:15;6.50;99.90
9215;DHT22;4642;51.364;6.788;2022-12-01T10:07:54;6.50;99.90
9215;DHT22;4642;51.364;6.788;2022-12-01T10:10:37;6.50;99.90
9215;DHT22;4642;51.364;6.788;2022-12-01T10:13:18;6.50;99.90
9215;DHT22;4642;51.364;6.788;2022-12-01T10:18:38;6.50;99.90
9215;DHT22;4642;51.364;6.788;2022-12-01T10:21:53;6.50;99.90
9215;DHT22;4642;51.364;6.788;2022-12-01T10:24:26;6.50;99.90
9215;DHT22;4642;51.364;6.788;2022-12-01T10:26:56;6.50;99.90
9215;DHT22;4642;51.364;6.788;2022-12-01T10:32:05;6.60;99.90
9215;DHT22;4642;51.364;6.788;2022-12-01T10:34:36;6.40;99.90
9215;DHT22;4642;51.364;6.788;2022-12-01T10:37:03;6.50;99.90
9215;DHT22;4642;51.364;6.788;2022-12-01T10:39:36;6.50;99.90
9215;DHT22;4642;51.364;6.788;2022-12-01T10:42:12;6.50;99.90
9215;DHT22;4642;51.364;6.788;2022-12-01T10:44:38;6.50;99.90
9215;DHT22;4642;51.364;6.788;2022-12-01T10:47:16;6.50;99.90
9215;DHT22;4642;51.364;6.788;2022-12-01T10:49:42;6.60;99.90
9215;DHT22;4642;51.364;6.788;2022-12-01T10:54:52;6.50;99.90
9215;DHT22;4642;51.364;6.788;2022-12-01T10:57:17;6.50;99.90
9215;DHT22;4642;51.364;6.788;2022-12-01T10:59:49;6.50;99.90
9215;DHT22;4642;51.364;6.788;2022-12-01T11:02:22;6.50;99.90
9215;DHT22;4642;51.364;6.788;2022-12-01T11:04:57;6.40;99.90
9215;DHT22;4642;51.364;6.788;2022-12-01T11:07:34;6.40;99.90
9215;DHT22;4642;51.364;6.788;2022-12-01T11:10:05;6.40;99.90
9215;DHT22;4642;51.364;6.788;2022-12-01T11:12:37;6.40;99.90
9215;DHT22;4642;51.364;6.788;2022-12-01T11:15:04;6.40;99.90
9215;DHT22;4642;51.364;6.788;2022-12-01T11:19:55;6.40;99.90
9215;DHT22;4642;51.364;6.788;2022-12-01T11:22:24;6.40;99.90
9215;DHT22;4642;51.364;6.788;2022-12-01T11:25:00;6.40;99.90
9215;DHT22;4642;51.364;6.788;2022-12-01T11:27:33;6.40;99.90
9215;DHT22;4642;51.364;6.788;2022-12-01T11:30:05;6.50;99.90
9215;DHT22;4642;51.364;6.788;2022-12-01T11:32:34;6.50;99.90
9215;DHT22;4642;51.364;6.788;2022-12-01T11:35:15;6.40;99.90
9215;DHT22;4642;51.364;6.788;2022-12-01T11:37:53;6.40;99.90
9215;DHT22;4642;51.364;6.788;2022-12-01T11:40:23;6.40;99.90
9215;DHT22;4642;51.364;6.788;2022-12-01T11:42:50;6.40;99.90
9215;DHT22;4642;51.364;6.788;2022-12-01T11:47:58;6.40;99.90
9215;DHT22;4642;51.364;6.788;2022-12-01T11:50:26;6.40;99.90
9215;DHT22;4642;51.364;6.788;2022-12-01T11:52:52;6.50;99.90
9215;DHT22;4642;51.364;6.788;2022-12-01T11:55:21;6.50;99.90
9215;DHT22;4642;51.364;6.788;2022-12-01T11:57:49;6.60;99.90
9215;DHT22;4642;51.364;6.788;2022-12-01T12:00:23;6.60;99.90
9215;DHT22;4642;51.364;6.788;2022-12-01T12:08:29;6.80;99.90
9215;DHT22;4642;51.364;6.788;2022-12-01T12:14:14;6.80;99.90
9215;DHT22;4642;51.364;6.788;2022-12-01T12:17:19;6.80;99.90
9215;DHT22;4642;51.364;6.788;2022-12-01T12:25:09;7.00;99.90
9215;DHT22;4642;51.364;6.788;2022-12-01T12:36:38;6.90;99.90
9215;DHT22;4642;51.364;6.788;2022-12-01T12:41:52;7.00;99.90
9215;DHT22;4642;51.364;6.788;2022-12-01T12:44:34;6.90;99.90
9215;DHT22;4642;51.364;6.788;2022-12-01T12:52:50;7.00;99.90
9215;DHT22;4642;51.364;6.788;2022-12-01T12:55:29;7.00;99.90
9215;DHT22;4642;51.364;6.788;2022-12-01T12:58:28;7.00;99.90
9215;DHT22;4642;51.364;6.788;2022-12-01T13:01:22;6.90;99.90
9215;DHT22;4642;51.364;6.788;2022-12-01T13:03:55;6.90;99.90
9215;DHT22;4642;51.364;6.788;2022-12-01T13:09:25;7.00;99.90
9215;DHT22;4642;51.364;6.788;2022-12-01T13:11:57;7.00;99.90
9215;DHT22;4642;51.364;6.788;2022-12-01T13:14:42;7.00;99.90
9215;DHT22;4642;51.364;6.788;2022-12-01T13:17:36;7.00;99.90
9215;DHT22;4642;51.364;6.788;2022-12-01T13:20:04;7.00;99.90
9215;DHT22;4642;51.364;6.788;2022-12-01T13:22:34;7.00;99.90
9215;DHT22;4642;51.364;6.788;2022-12-01T13:25:01;6.90;99.90
9215;DHT22;4642;51.364;6.788;2022-12-01T13:27:31;6.90;99.90
9215;DHT22;4642;51.364;6.788;2022-12-01T13:29:58;6.90;99.90
9215;DHT22;4642;51.364;6.788;2022-12-01T13:32:38;6.90;99.90
9215;DHT22;4642;51.364;6.788;2022-12-01T13:35:19;6.90;99.90
9215;DHT22;4642;51.364;6.788;2022-12-01T13:37:45;6.90;99.90
9215;DHT22;4642;51.364;6.788;2022-12-01T13:40:23;6.90;99.90
9215;DHT22;4642;51.364;6.788;2022-12-01T13:42:59;6.90;99.90
9215;DHT22;4642;51.364;6.788;2022-12-01T13:45:30;6.90;99.90
9215;DHT22;4642;51.364;6.788;2022-12-01T13:47:57;6.90;99.90
9215;DHT22;4642;51.364;6.788;2022-12-01T13:50:53;6.90;99.90
9215;DHT22;4642;51.364;6.788;2022-12-01T14:06:48;6.90;99.90
9215;DHT22;4642;51.364;6.788;2022-12-01T14:09:26;6.90;99.90
9215;DHT22;4642;51.364;6.788;2022-12-01T14:14:25;6.90;99.90
9215;DHT22;4642;51.364;6.788;2022-12-01T14:17:00;6.90;99.90
9215;DHT22;4642;51.364;6.788;2022-12-01T14:22:00;6.80;99.90
9215;DHT22;4642;51.364;6.788;2022-12-01T14:24:36;6.80;99.90
9215;DHT22;4642;51.364;6.788;2022-12-01T14:27:03;6.80;99.90
9215;DHT22;4642;51.364;6.788;2022-12-01T14:29:32;6.90;99.90
9215;DHT22;4642;51.364;6.788;2022-12-01T14:32:04;7.00;99.90
9215;DHT22;4642;51.364;6.788;2022-12-01T14:34:41;6.80;99.90
9215;DHT22;4642;51.364;6.788;2022-12-01T14:37:11;6.90;99.90
9215;DHT22;4642;51.364;6.788;2022-12-01T14:39:40;6.80;99.90
9215;DHT22;4642;51.364;6.788;2022-12-01T14:44:43;6.80;99.90
9215;DHT22;4642;51.364;6.788;2022-12-01T14:47:23;6.80;99.90
9215;DHT22;4642;51.364;6.788;2022-12-01T14:51:06;6.80;99.90
9215;DHT22;4642;51.364;6.788;2022-12-01T14:55:50;6.80;99.90
9215;DHT22;4642;51.364;6.788;2022-12-01T14:58:20;6.80;99.90
9215;DHT22;4642;51.364;6.788;2022-12-01T15:00:55;6.80;99.90
9215;DHT22;4642;51.364;6.788;2022-12-01T15:03:22;6.70;99.90
9215;DHT22;4642;51.364;6.788;2022-12-01T15:05:48;6.70;99.90
9215;DHT22;4642;51.364;6.788;2022-12-01T15:08:26;6.70;99.90
9215;DHT22;4642;51.364;6.788;2022-12-01T15:10:54;6.70;99.90
9215;DHT22;4642;51.364;6.788;2022-12-01T15:13:31;6.70;99.90
9215;DHT22;4642;51.364;6.788;2022-12-01T15:15:59;6.60;99.90
9215;DHT22;4642;51.364;6.788;2022-12-01T15:18:29;6.60;99.90
9215;DHT22;4642;51.364;6.788;2022-12-01T15:20:59;6.60;99.90
9215;DHT22;4642;51.364;6.788;2022-12-01T15:23:25;6.60;99.90
9215;DHT22;4642;51.364;6.788;2022-12-01T15:25:51;6.50;99.90
9215;DHT22;4642;51.364;6.788;2022-12-01T15:28:19;6.60;99.90
9215;DHT22;4642;51.364;6.788;2022-12-01T15:30:48;6.50;99.90
9215;DHT22;4642;51.364;6.788;2022-12-01T15:33:21;6.50;99.90
9215;DHT22;4642;51.364;6.788;2022-12-01T15:35:48;6.50;99.90
9215;DHT22;4642;51.364;6.788;2022-12-01T15:38:17;6.50;99.90
9215;DHT22;4642;51.364;6.788;2022-12-01T15:40:45;6.50;99.90
9215;DHT22;4642;51.364;6.788;2022-12-01T15:43:23;6.50;99.90
9215;DHT22;4642;51.364;6.788;2022-12-01T15:45:57;6.40;99.90
9215;DHT22;4642;51.364;6.788;2022-12-01T15:48:31;6.40;99.90
9215;DHT22;4642;51.364;6.788;2022-12-01T15:51:06;6.40;99.90
9215;DHT22;4642;51.364;6.788;2022-12-01T15:53:34;6.40;99.90
9215;DHT22;4642;51.364;6.788;2022-12-01T15:56:05;6.40;99.90
9215;DHT22;4642;51.364;6.788;2022-12-01T15:58:34;6.40;99.90
9215;DHT22;4642;51.364;6.788;2022-12-01T16:01:11;6.30;99.90
9215;DHT22;4642;51.364;6.788;2022-12-01T16:03:56;6.30;99.90
9215;DHT22;4642;51.364;6.788;2022-12-01T16:06:26;6.30;99.90
9215;DHT22;4642;51.364;6.788;2022-12-01T16:08:58;6.30;99.90
9215;DHT22;4642;51.364;6.788;2022-12-01T16:11:25;6.30;99.90
9215;DHT22;4642;51.364;6.788;2022-12-01T16:16:37;6.30;99.90
9215;DHT22;4642;51.364;6.788;2022-12-01T16:19:25;6.30;99.90
9215;DHT22;4642;51.364;6.788;2022-12-01T16:21:58;6.30;99.90
9215;DHT22;4642;51.364;6.788;2022-12-01T16:24:44;6.20;99.90
9215;DHT22;4642;51.364;6.788;2022-12-01T16:27:20;6.20;99.90
9215;DHT22;4642;51.364;6.788;2022-12-01T16:29:55;6.20;99.90
9215;DHT22;4642;51.364;6.788;2022-12-01T16:34:55;6.20;99.90
9215;DHT22;4642;51.364;6.788;2022-12-01T16:37:20;6.30;99.90
9215;DHT22;4642;51.364;6.788;2022-12-01T16:39:46;6.20;99.90
9215;DHT22;4642;51.364;6.788;2022-12-01T16:42:15;6.20;99.90
9215;DHT22;4642;51.364;6.788;2022-12-01T16:44:41;6.20;99.90
9215;DHT22;4642;51.364;6.788;2022-12-01T16:47:22;6.20;99.90
9215;DHT22;4642;51.364;6.788;2022-12-01T16:49:48;6.20;99.90
9215;DHT22;4642;51.364;6.788;2022-12-01T16:52:14;6.20;99.90
9215;DHT22;4642;51.364;6.788;2022-12-01T16:54:40;6.20;99.90
9215;DHT22;4642;51.364;6.788;2022-12-01T16:57:06;6.20;99.90
9215;DHT22;4642;51.364;6.788;2022-12-01T16:59:31;6.10;99.90
9215;DHT22;4642;51.364;6.788;2022-12-01T17:01:58;6.20;99.90
9215;DHT22;4642;51.364;6.788;2022-12-01T17:04:23;6.20;99.90
9215;DHT22;4642;51.364;6.788;2022-12-01T17:06:49;6.20;99.90
9215;DHT22;4642;51.364;6.788;2022-12-01T17:09:15;6.10;99.90
9215;DHT22;4642;51.364;6.788;2022-12-01T17:11:40;6.10;99.90
9215;DHT22;4642;51.364;6.788;2022-12-01T17:14:06;6.10;99.90
9215;DHT22;4642;51.364;6.788;2022-12-01T17:16:31;6.00;99.90
9215;DHT22;4642;51.364;6.788;2022-12-01T17:18:59;6.00;99.90
9215;DHT22;4642;51.364;6.788;2022-12-01T17:21:25;6.00;99.90
9215;DHT22;4642;51.364;6.788;2022-12-01T17:23:50;6.00;99.90
9215;DHT22;4642;51.364;6.788;2022-12-01T17:26:18;6.00;99.90
9215;DHT22;4642;51.364;6.788;2022-12-01T17:28:44;6.00;99.90
9215;DHT22;4642;51.364;6.788;2022-12-01T17:31:09;6.00;99.90
9215;DHT22;4642;51.364;6.788;2022-12-01T17:33:35;6.00;99.90
9215;DHT22;4642;51.364;6.788;2022-12-01T17:36:04;6.00;99.90
9215;DHT22;4642;51.364;6.788;2022-12-01T17:38:31;6.00;99.90
9215;DHT22;4642;51.364;6.788;2022-12-01T17:41:03;6.00;99.90
9215;DHT22;4642;51.364;6.788;2022-12-01T17:43:28;6.00;99.90
9215;DHT22;4642;51.364;6.788;2022-12-01T17:45:54;6.00;99.90
9215;DHT22;4642;51.364;6.788;2022-12-01T17:48:20;6.00;99.90
9215;DHT22;4642;51.364;6.788;2022-12-01T17:50:45;6.00;99.90
9215;DHT22;4642;51.364;6.788;2022-12-01T17:53:11;6.00;99.90
9215;DHT22;4642;51.364;6.788;2022-12-01T17:55:39;6.00;99.90
9215;DHT22;4642;51.364;6.788;2022-12-01T17:58:05;6.00;99.90
9215;DHT22;4642;51.364;6.788;2022-12-01T18:00:30;6.00;99.90
9215;DHT22;4642;51.364;6.788;2022-12-01T18:02:56;6.00;99.90
9215;DHT22;4642;51.364;6.788;2022-12-01T18:05:22;6.00;99.90
9215;DHT22;4642;51.364;6.788;2022-12-01T18:07:49;6.00;99.90
9215;DHT22;4642;51.364;6.788;2022-12-01T18:10:15;6.00;99.90
9215;DHT22;4642;51.364;6.788;2022-12-01T18:12:41;5.90;99.90